createdAt,value
2022-08-02T00:01:20.069Z,7.22
2022-08-02T00:03:46.970Z,7.03
2022-08-02T00:06:14.910Z,3.45
2022-08-02T00:08:41.671Z,8.00
2022-08-02T00:11:08.526Z,5.03
2022-08-02T00:13:35.923Z,4.70
2022-08-02T00:16:03.188Z,4.05
2022-08-02T00:18:30.008Z,4.95
2022-08-02T00:20:56.978Z,3.97
2022-08-02T00:23:24.016Z,4.88
2022-08-02T00:25:55.148Z,5.70
2022-08-02T00:28:27.164Z,4.43
2022-08-02T00:30:55.071Z,3.70
2022-08-02T00:34:26.362Z,4.10
2022-08-02T00:36:08.839Z,5.93
2022-08-02T00:38:35.531Z,6.35
2022-08-02T00:41:02.243Z,7.57
2022-08-02T00:43:28.957Z,5.82
2022-08-02T00:46:02.209Z,5.63
2022-08-02T00:48:31.559Z,6.55
2022-08-02T00:50:59.242Z,5.78
2022-08-02T00:53:26.077Z,5.28
2022-08-02T00:55:52.913Z,4.63
2022-08-02T00:58:19.601Z,5.00
2022-08-02T01:00:46.655Z,5.00
2022-08-02T01:03:13.386Z,4.78
2022-08-02T01:06:10.118Z,7.53
2022-08-02T01:08:29.652Z,4.85
2022-08-02T01:10:58.803Z,5.75
2022-08-02T01:13:27.936Z,5.35
2022-08-02T01:16:23.396Z,6.38
2022-08-02T01:18:58.318Z,4.43
2022-08-02T01:21:30.972Z,7.33
2022-08-02T01:24:13.415Z,5.75
2022-08-02T01:27:00.688Z,4.45
2022-08-02T01:29:39.886Z,3.45
2022-08-02T01:32:14.936Z,6.10
2022-08-02T01:35:02.654Z,3.75
2022-08-02T01:37:41.115Z,4.78
2022-08-02T01:40:12.473Z,5.57
2022-08-02T01:42:45.842Z,4.50
2022-08-02T01:45:13.916Z,4.70
2022-08-02T01:47:42.761Z,5.00
2022-08-02T01:50:13.708Z,3.55
2022-08-02T01:52:53.883Z,7.53
2022-08-02T01:55:56.905Z,9.85
2022-08-02T01:58:25.123Z,6.05
2022-08-02T02:00:56.014Z,5.18
2022-08-02T02:03:24.972Z,5.38
2022-08-02T02:05:55.750Z,5.35
2022-08-02T02:08:27.961Z,7.68
2022-08-02T02:10:57.586Z,4.97
2022-08-02T02:13:45.535Z,3.05
2022-08-02T02:16:14.200Z,6.22
2022-08-02T02:18:43.956Z,4.75
2022-08-02T02:21:12.465Z,4.68
2022-08-02T02:23:39.479Z,7.07
2022-08-02T02:26:10.814Z,5.07
2022-08-02T02:28:39.370Z,5.60
2022-08-02T02:31:16.160Z,4.20
2022-08-02T02:34:04.884Z,4.28
2022-08-02T02:36:33.499Z,3.72
2022-08-02T02:39:04.574Z,4.05
2022-08-02T02:41:40.979Z,4.75
2022-08-02T02:44:11.374Z,4.43
2022-08-02T02:46:39.229Z,4.72
2022-08-02T02:49:10.337Z,5.70
2022-08-02T02:51:40.282Z,6.65
2022-08-02T02:54:30.225Z,6.35
2022-08-02T02:57:00.805Z,6.20
2022-08-02T02:59:28.328Z,3.95
2022-08-02T03:02:08.400Z,4.32
2022-08-02T03:04:56.920Z,5.38
2022-08-02T03:07:23.035Z,4.32
2022-08-02T03:09:53.754Z,4.95
2022-08-02T03:12:31.444Z,5.25
2022-08-02T03:15:00.991Z,4.50
2022-08-02T03:17:41.871Z,7.43
2022-08-02T03:20:14.379Z,7.35
2022-08-02T03:22:42.638Z,7.97
2022-08-02T03:25:10.568Z,6.80
2022-08-02T03:27:37.323Z,5.28
2022-08-02T03:30:07.406Z,5.55
2022-08-02T03:32:35.440Z,5.43
2022-08-02T03:35:03.194Z,5.22
2022-08-02T03:37:31.952Z,6.28
2022-08-02T03:39:59.983Z,5.40
2022-08-02T03:42:28.521Z,4.53
2022-08-02T03:45:03.733Z,6.38
2022-08-02T03:47:33.961Z,7.57
2022-08-02T03:50:02.465Z,6.72
2022-08-02T03:52:32.731Z,7.63
2022-08-02T03:54:59.568Z,7.18
2022-08-02T03:57:27.002Z,6.68
2022-08-02T03:59:53.800Z,7.57
2022-08-02T04:02:20.639Z,10.02
2022-08-02T04:04:48.175Z,6.22
2022-08-02T04:07:14.982Z,12.65
2022-08-02T04:10:01.918Z,7.13
2022-08-02T04:12:28.638Z,7.00
2022-08-02T04:14:55.419Z,7.43
2022-08-02T04:17:23.849Z,8.98
2022-08-02T04:19:55.075Z,6.57
2022-08-02T04:22:27.832Z,5.75
2022-08-02T04:25:01.857Z,10.75
2022-08-02T04:27:51.077Z,5.50
2022-08-02T04:30:18.281Z,9.23
2022-08-02T04:32:45.823Z,8.68
2022-08-02T04:35:20.703Z,8.02
2022-08-02T04:38:05.727Z,6.63
2022-08-02T04:40:37.024Z,6.78
2022-08-02T04:43:03.885Z,7.63
2022-08-02T04:45:31.117Z,8.98
2022-08-02T04:48:06.059Z,6.65
2022-08-02T04:50:34.213Z,8.40
2022-08-02T04:53:01.286Z,9.90
2022-08-02T04:55:31.020Z,8.55
2022-08-02T04:57:59.139Z,7.82
2022-08-02T05:00:29.666Z,10.10
2022-08-02T05:02:58.003Z,8.88
2022-08-02T05:05:25.282Z,8.98
2022-08-02T05:07:52.318Z,9.52
2022-08-02T05:10:20.039Z,9.52
2022-08-02T05:12:46.931Z,8.00
2022-08-02T05:15:16.660Z,8.27
2022-08-02T05:17:47.714Z,7.93
2022-08-02T05:20:16.797Z,7.55
2022-08-02T05:22:43.928Z,6.00
2022-08-02T05:25:11.141Z,9.07
2022-08-02T05:27:37.943Z,11.02
2022-08-02T05:30:05.995Z,10.48
2022-08-02T05:32:32.812Z,8.75
2022-08-02T05:35:02.031Z,8.00
2022-08-02T05:37:31.970Z,8.35
2022-08-02T05:39:59.299Z,13.95
2022-08-02T05:42:31.761Z,9.20
2022-08-02T05:44:58.937Z,10.00
2022-08-02T05:47:26.086Z,7.80
2022-08-02T05:49:53.415Z,9.52
2022-08-02T05:52:21.149Z,12.85
2022-08-02T05:55:13.526Z,10.75
2022-08-02T05:57:52.595Z,10.38
2022-08-02T06:00:21.102Z,12.85
2022-08-02T06:03:22.008Z,7.82
2022-08-02T06:06:04.665Z,13.68
2022-08-02T06:08:54.772Z,17.17
2022-08-02T06:11:22.839Z,10.15
2022-08-02T06:13:49.972Z,10.30
2022-08-02T06:16:18.083Z,8.50
2022-08-02T06:18:59.790Z,7.95
2022-08-02T06:22:41.685Z,10.75
2022-08-02T06:24:18.820Z,8.55
2022-08-02T06:26:46.318Z,10.68
2022-08-02T06:29:13.737Z,13.35
2022-08-02T06:31:42.246Z,10.98
2022-08-02T06:34:11.994Z,12.88
2022-08-02T06:36:49.554Z,14.05
2022-08-02T06:39:28.328Z,8.88
2022-08-02T06:42:00.317Z,10.35
2022-08-02T06:44:47.752Z,10.18
2022-08-02T06:47:13.997Z,9.50
2022-08-02T06:49:51.594Z,10.77
2022-08-02T06:52:27.145Z,13.40
2022-08-02T06:54:57.091Z,11.75
2022-08-02T06:57:24.165Z,7.93
2022-08-02T06:59:51.281Z,9.27
2022-08-02T07:02:17.997Z,10.27
2022-08-02T07:04:44.819Z,11.27
2022-08-02T07:07:11.845Z,11.60
2022-08-02T07:09:38.552Z,12.57
2022-08-02T07:12:06.142Z,9.43
2022-08-02T07:14:33.336Z,9.20
2022-08-02T07:17:02.739Z,10.98
2022-08-02T07:19:36.137Z,10.50
2022-08-02T07:22:05.458Z,7.93
2022-08-02T07:24:32.427Z,11.82
2022-08-02T07:27:11.306Z,8.23
2022-08-02T07:29:45.047Z,10.88
2022-08-02T07:32:18.707Z,10.80
2022-08-02T07:34:51.277Z,12.88
2022-08-02T07:37:35.408Z,11.77
2022-08-02T07:40:13.886Z,11.77
2022-08-02T07:42:43.288Z,12.27
2022-08-02T07:45:10.709Z,9.05
2022-08-02T07:47:38.846Z,13.32
2022-08-02T07:50:07.699Z,10.30
2022-08-02T07:52:34.873Z,9.07
2022-08-02T07:55:02.105Z,12.48
2022-08-02T07:57:29.205Z,9.75
2022-08-02T07:59:55.989Z,10.77
2022-08-02T08:02:25.004Z,10.40
2022-08-02T08:04:52.529Z,8.57
2022-08-02T08:07:19.500Z,10.02
2022-08-02T08:09:47.664Z,9.38
2022-08-02T08:12:16.420Z,11.10
2022-08-02T08:14:45.081Z,9.40
2022-08-02T08:17:12.107Z,8.48
2022-08-02T08:19:50.833Z,8.75
2022-08-02T08:22:20.930Z,8.85
2022-08-02T08:24:50.985Z,11.00
2022-08-02T08:27:21.240Z,10.52
2022-08-02T08:29:52.348Z,5.25
2022-08-02T08:32:20.095Z,6.13
2022-08-02T08:34:47.277Z,6.45
2022-08-02T08:37:17.769Z,6.50
2022-08-02T08:39:58.168Z,7.00
2022-08-02T08:42:28.729Z,8.48
2022-08-02T08:44:57.578Z,5.63
2022-08-02T08:47:33.567Z,7.43
2022-08-02T08:50:05.930Z,6.65
2022-08-02T08:52:42.395Z,7.93
2022-08-02T08:55:12.135Z,5.35
2022-08-02T08:57:42.591Z,5.00
2022-08-02T09:00:13.026Z,3.83
2022-08-02T09:02:43.519Z,3.85
2022-08-02T09:05:13.385Z,5.57
2022-08-02T09:07:42.608Z,6.13
2022-08-02T09:10:32.412Z,7.38
2022-08-02T09:13:31.272Z,3.55
2022-08-02T09:16:12.730Z,4.55
2022-08-02T09:18:46.890Z,4.20
2022-08-02T09:21:16.517Z,3.05
2022-08-02T09:23:46.555Z,5.13
2022-08-02T09:26:18.982Z,6.55
2022-08-02T09:28:51.775Z,5.88
2022-08-02T09:31:23.217Z,4.72
2022-08-02T09:33:56.242Z,3.42
2022-08-02T09:36:24.762Z,3.05
2022-08-02T09:39:01.607Z,5.00
2022-08-02T09:41:31.455Z,5.95
2022-08-02T09:44:04.617Z,4.78
2022-08-02T09:46:38.093Z,4.75
2022-08-02T09:49:09.404Z,3.88
2022-08-02T09:51:48.779Z,3.20
2022-08-02T09:54:29.298Z,4.95
2022-08-02T09:56:59.703Z,5.45
2022-08-02T09:59:28.449Z,3.42
2022-08-02T10:02:02.007Z,6.80
2022-08-02T10:04:32.086Z,2.58
2022-08-02T10:07:04.566Z,3.90
2022-08-02T10:09:32.080Z,5.03
2022-08-02T10:12:00.315Z,5.65
2022-08-02T10:14:31.216Z,3.42
2022-08-02T10:16:58.774Z,4.55
2022-08-02T10:20:03.355Z,4.43
2022-08-02T10:22:16.474Z,3.65
2022-08-02T10:24:48.686Z,2.67
2022-08-02T10:27:20.168Z,3.47
2022-08-02T10:29:54.911Z,5.30
2022-08-02T10:32:30.069Z,4.60
2022-08-02T10:35:26.345Z,2.17
2022-08-02T10:38:01.585Z,4.70
2022-08-02T10:43:15.029Z,2.78
2022-08-02T10:45:44.167Z,4.32
2022-08-02T10:48:14.994Z,3.30
2022-08-02T10:50:48.295Z,3.28
2022-08-02T10:53:26.612Z,4.93
2022-08-02T10:55:55.386Z,6.22
2022-08-02T10:58:29.446Z,4.22
2022-08-02T11:00:57.998Z,2.55
2022-08-02T11:03:40.269Z,4.55
2022-08-02T11:06:25.423Z,3.38
2022-08-02T11:09:32.773Z,2.83
2022-08-02T11:12:07.130Z,4.13
2022-08-02T11:14:36.245Z,5.85
2022-08-02T11:17:07.694Z,4.88
2022-08-02T11:19:35.205Z,7.30
2022-08-02T11:22:11.826Z,5.30
2022-08-02T11:24:40.818Z,3.80
2022-08-02T11:27:21.646Z,4.32
2022-08-02T11:29:50.018Z,3.78
2022-08-02T11:32:22.636Z,4.95
2022-08-02T11:34:59.223Z,5.18
2022-08-02T11:37:31.085Z,3.47
2022-08-02T11:39:59.077Z,4.60
2022-08-02T11:42:37.184Z,3.33
2022-08-02T11:45:07.296Z,4.32
2022-08-02T11:47:34.646Z,6.63
2022-08-02T11:50:09.570Z,9.40
2022-08-02T11:55:06.386Z,3.25
2022-08-02T11:58:01.488Z,3.25
2022-08-02T12:00:22.354Z,3.53
2022-08-02T12:02:55.122Z,3.60
2022-08-02T12:05:51.161Z,7.70
2022-08-02T12:08:14.202Z,4.82
2022-08-02T12:10:49.917Z,2.80
2022-08-02T12:13:17.073Z,3.17
2022-08-02T12:15:46.376Z,2.58
2022-08-02T12:18:42.017Z,4.22
2022-08-02T12:21:26.428Z,2.58
2022-08-02T12:24:00.268Z,4.53
2022-08-02T12:28:59.488Z,4.32
2022-08-02T12:31:59.441Z,3.78
2022-08-02T12:34:31.602Z,2.22
2022-08-02T12:37:07.730Z,3.42
2022-08-02T12:39:46.083Z,3.17
2022-08-02T12:42:15.566Z,2.92
2022-08-02T12:44:55.885Z,4.07
2022-08-02T12:47:22.817Z,2.20
2022-08-02T12:50:12.930Z,4.82
2022-08-02T12:52:39.768Z,7.07
2022-08-02T12:55:59.379Z,4.50
2022-08-02T12:58:25.878Z,3.13
2022-08-02T13:00:55.468Z,2.95
2022-08-02T13:04:07.925Z,2.50
2022-08-02T13:06:32.253Z,3.25
2022-08-02T13:08:58.662Z,2.53
2022-08-02T13:11:27.086Z,2.92
2022-08-02T13:13:54.383Z,2.65
2022-08-02T13:16:31.211Z,2.55
2022-08-02T13:18:59.641Z,5.95
2022-08-02T13:21:40.653Z,3.85
2022-08-02T13:24:20.859Z,2.10
2022-08-02T13:27:08.095Z,2.42
2022-08-02T13:29:37.147Z,2.50
2022-08-02T13:32:04.250Z,2.25
2022-08-02T13:34:31.069Z,6.63
2022-08-02T13:36:58.017Z,3.58
2022-08-02T13:39:25.047Z,2.42
2022-08-02T13:41:52.035Z,3.67
2022-08-02T13:44:18.949Z,3.03
2022-08-02T13:46:46.192Z,2.63
2022-08-02T13:49:21.588Z,3.00
2022-08-02T13:51:48.966Z,2.90
2022-08-02T13:54:16.848Z,4.55
2022-08-02T13:56:45.234Z,1.65
2022-08-02T13:59:54.724Z,2.85
2022-08-02T14:01:59.848Z,1.73
2022-08-02T14:04:27.841Z,2.40
2022-08-02T14:06:54.692Z,1.80
2022-08-02T14:09:25.861Z,2.42
2022-08-02T14:11:52.792Z,2.92
2022-08-02T14:14:19.469Z,2.05
2022-08-02T14:16:46.459Z,2.60
2022-08-02T14:19:16.700Z,3.08
2022-08-02T14:21:46.619Z,2.95
2022-08-02T14:24:16.457Z,4.00
2022-08-02T14:26:43.913Z,4.13
2022-08-02T14:29:11.060Z,2.45
2022-08-02T14:31:43.325Z,3.70
2022-08-02T14:34:11.495Z,2.10
2022-08-02T14:36:39.170Z,3.05
2022-08-02T14:39:06.268Z,2.58
2022-08-02T14:41:39.552Z,2.10
2022-08-02T14:44:20.908Z,4.10
2022-08-02T14:46:47.747Z,1.80
2022-08-02T14:49:25.447Z,4.28
2022-08-02T14:51:55.999Z,3.30
2022-08-02T14:54:28.120Z,1.85
2022-08-02T14:56:59.493Z,2.85
2022-08-02T14:59:27.317Z,1.85
2022-08-02T15:01:54.699Z,2.35
2022-08-02T15:04:21.573Z,2.33
2022-08-02T15:06:48.360Z,2.00
2022-08-02T15:09:15.410Z,2.20
2022-08-02T15:11:48.034Z,1.60
2022-08-02T15:14:25.914Z,4.13
2022-08-02T15:16:58.189Z,2.97
2022-08-02T15:19:35.450Z,4.97
2022-08-02T15:22:17.006Z,1.88
2022-08-02T15:24:47.715Z,1.80
2022-08-02T15:27:15.445Z,3.35
2022-08-02T15:29:51.083Z,1.83
2022-08-02T15:32:19.860Z,1.80
2022-08-02T15:34:47.869Z,2.92
2022-08-02T15:37:14.719Z,3.88
2022-08-02T15:39:41.575Z,3.47
2022-08-02T15:42:08.644Z,4.93
2022-08-02T15:44:35.585Z,1.85
2022-08-02T15:47:05.543Z,2.05
2022-08-02T15:49:32.583Z,4.05
2022-08-02T15:51:59.969Z,1.73
2022-08-02T15:54:26.667Z,4.18
2022-08-02T15:56:53.569Z,1.77
2022-08-02T15:59:21.758Z,2.92
2022-08-02T16:01:48.722Z,1.80
2022-08-02T16:04:16.704Z,1.92
2022-08-02T16:06:44.451Z,2.35
2022-08-02T16:09:11.553Z,3.65
2022-08-02T16:11:39.728Z,3.33
2022-08-02T16:14:06.957Z,1.70
2022-08-02T16:16:36.967Z,1.85
2022-08-02T16:19:46.898Z,2.28
2022-08-02T16:21:53.306Z,2.15
2022-08-02T16:24:20.984Z,1.88
2022-08-02T16:26:48.119Z,2.75
2022-08-02T16:29:19.132Z,2.08
2022-08-02T16:31:47.446Z,1.30
2022-08-02T16:34:14.568Z,2.70
2022-08-02T16:36:43.577Z,3.00
2022-08-02T16:39:10.950Z,2.15
2022-08-02T16:41:52.227Z,1.55
2022-08-02T16:44:29.339Z,2.85
2022-08-02T16:47:01.233Z,2.00
2022-08-02T16:50:03.940Z,4.40
2022-08-02T16:52:33.721Z,1.85
2022-08-02T16:55:00.538Z,3.75
2022-08-02T16:57:42.634Z,4.00
2022-08-02T17:00:12.601Z,1.90
2022-08-02T17:02:40.019Z,1.80
2022-08-02T17:05:13.476Z,4.88
2022-08-02T17:08:07.425Z,1.90
2022-08-02T17:10:29.466Z,1.95
2022-08-02T17:12:58.269Z,1.85
2022-08-02T17:16:17.206Z,2.50
2022-08-02T17:18:26.395Z,4.18
2022-08-02T17:21:07.258Z,2.65
2022-08-02T17:24:04.217Z,2.35
2022-08-02T17:26:21.950Z,1.40
2022-08-02T17:29:16.346Z,1.48
2022-08-02T17:31:43.099Z,1.23
2022-08-02T17:34:12.881Z,2.13
2022-08-02T17:36:44.491Z,2.28
2022-08-02T17:39:16.732Z,1.67
2022-08-02T17:41:49.120Z,4.05
2022-08-02T17:44:16.419Z,2.78
2022-08-02T17:47:03.533Z,1.33
2022-08-02T17:49:30.440Z,1.63
2022-08-02T17:52:49.121Z,3.53
2022-08-02T17:54:45.281Z,2.00
2022-08-02T17:57:12.224Z,3.70
2022-08-02T17:59:42.456Z,1.83
2022-08-02T18:02:11.253Z,2.83
2022-08-02T18:04:38.620Z,2.78
2022-08-02T18:07:09.676Z,1.30
2022-08-02T18:09:37.298Z,3.10
2022-08-02T18:12:11.717Z,1.83
2022-08-02T18:14:48.892Z,2.22
2022-08-02T18:17:16.925Z,1.20
2022-08-02T18:19:55.512Z,2.13
2022-08-02T18:22:26.871Z,1.90
2022-08-02T18:24:54.256Z,1.50
2022-08-02T18:27:21.690Z,3.63
2022-08-02T18:29:48.863Z,1.38
2022-08-02T18:33:54.741Z,3.00
2022-08-02T18:35:19.457Z,3.60
2022-08-02T18:37:56.964Z,1.90
2022-08-02T18:40:30.687Z,6.38
2022-08-02T18:42:57.927Z,4.43
2022-08-02T18:45:25.203Z,2.63
2022-08-02T18:48:11.946Z,3.40
2022-08-02T18:50:44.560Z,1.83
2022-08-02T18:53:14.384Z,2.35
2022-08-02T18:55:59.699Z,2.03
2022-08-02T18:58:29.390Z,4.68
2022-08-02T19:00:59.175Z,2.63
2022-08-02T19:03:26.067Z,2.38
2022-08-02T19:05:54.034Z,2.92
2022-08-02T19:08:25.654Z,1.70
2022-08-02T19:10:56.195Z,3.83
2022-08-02T19:13:24.404Z,5.30
2022-08-02T19:15:52.466Z,3.40
2022-08-02T19:18:19.402Z,4.53
2022-08-02T19:20:58.202Z,1.75
2022-08-02T19:23:29.935Z,2.53
2022-08-02T19:25:57.200Z,2.65
2022-08-02T19:28:25.833Z,3.08
2022-08-02T19:30:54.151Z,2.92
2022-08-02T19:33:55.015Z,2.28
2022-08-02T19:36:08.383Z,2.83
2022-08-02T19:38:38.543Z,2.13
2022-08-02T19:41:10.192Z,1.80
2022-08-02T19:44:24.875Z,4.80
2022-08-02T19:46:24.994Z,3.03
2022-08-02T19:48:52.261Z,2.70
2022-08-02T19:51:50.022Z,5.45
2022-08-02T19:54:10.959Z,2.40
2022-08-02T19:56:42.603Z,2.70
2022-08-02T19:59:12.959Z,3.47
2022-08-02T20:01:43.538Z,2.30
2022-08-02T20:04:14.120Z,2.42
2022-08-02T20:06:45.390Z,2.50
2022-08-02T20:09:33.227Z,4.65
2022-08-02T20:12:00.361Z,4.35
2022-08-02T20:14:27.988Z,2.45
2022-08-02T20:16:58.445Z,3.20
2022-08-02T20:19:25.485Z,3.63
2022-08-02T20:24:46.791Z,7.05
2022-08-02T20:27:17.059Z,5.53
2022-08-02T20:29:50.796Z,4.22
2022-08-02T20:32:23.888Z,3.22
2022-08-02T20:34:51.253Z,2.75
2022-08-02T20:38:00.430Z,2.95
2022-08-02T20:40:08.640Z,4.07
2022-08-02T20:42:35.485Z,2.83
2022-08-02T20:45:03.196Z,3.83
2022-08-02T20:47:39.653Z,3.00
2022-08-02T20:50:31.667Z,3.15
2022-08-02T20:53:04.281Z,5.47
2022-08-02T20:55:34.318Z,2.72
2022-08-02T20:58:02.751Z,2.90
2022-08-02T21:00:31.949Z,4.47
2022-08-02T21:03:04.477Z,4.68
2022-08-02T21:05:54.181Z,4.95
2022-08-02T21:08:21.631Z,3.75
2022-08-02T21:10:52.301Z,3.58
2022-08-02T21:13:27.999Z,3.97
2022-08-02T21:15:55.435Z,3.20
2022-08-02T21:18:33.821Z,4.38
2022-08-02T21:21:06.764Z,5.78
2022-08-02T21:23:36.301Z,8.75
2022-08-02T21:26:04.242Z,3.50
2022-08-02T21:28:43.461Z,7.72
2022-08-02T21:31:13.520Z,3.95
2022-08-02T21:33:57.762Z,3.88
2022-08-02T21:36:33.739Z,4.05
2022-08-02T21:39:04.896Z,2.65
2022-08-02T21:41:39.786Z,3.70
2022-08-02T21:44:18.042Z,3.92
2022-08-02T21:46:48.893Z,4.03
2022-08-02T21:49:17.487Z,2.83
2022-08-02T21:51:49.485Z,2.70
2022-08-02T21:54:19.937Z,3.22
2022-08-02T21:56:52.784Z,3.10
2022-08-02T21:59:25.823Z,3.25
2022-08-02T22:01:54.602Z,5.53
2022-08-02T22:04:24.199Z,4.53
2022-08-02T22:06:51.093Z,3.78
2022-08-02T22:09:43.090Z,3.13
2022-08-02T22:12:10.107Z,5.07
2022-08-02T22:14:39.412Z,4.78
2022-08-02T22:17:08.717Z,4.18
2022-08-02T22:19:40.312Z,4.93
2022-08-02T22:22:20.242Z,3.28
2022-08-02T22:24:47.041Z,3.33
2022-08-02T22:27:14.554Z,5.20
2022-08-02T22:29:46.567Z,4.40
2022-08-02T22:32:17.669Z,6.95
2022-08-02T22:34:52.039Z,3.60
2022-08-02T22:38:14.771Z,4.82
2022-08-02T22:40:09.661Z,5.22
2022-08-02T22:42:36.633Z,4.10
2022-08-02T22:45:08.076Z,4.55
2022-08-02T22:47:38.859Z,5.38
2022-08-02T22:50:18.060Z,4.13
2022-08-02T22:52:46.818Z,3.58
2022-08-02T22:55:17.477Z,4.30
2022-08-02T22:57:56.323Z,4.43
2022-08-02T22:59:08.351Z,3.70
2022-08-02T23:00:24.766Z,9.10
2022-08-02T23:02:51.585Z,4.10
2022-08-02T23:05:18.672Z,4.63
2022-08-02T23:07:45.343Z,4.95
2022-08-02T23:10:12.270Z,3.95
2022-08-02T23:12:39.062Z,3.13
2022-08-02T23:15:06.253Z,4.72
2022-08-02T23:17:52.918Z,3.90
2022-08-02T23:20:21.050Z,5.53
2022-08-02T23:22:47.786Z,5.45
2022-08-02T23:25:14.788Z,8.05
2022-08-02T23:27:50.612Z,3.85
2022-08-02T23:30:19.103Z,3.35
2022-08-02T23:32:47.474Z,3.70
2022-08-02T23:35:16.744Z,4.40
2022-08-02T23:37:58.971Z,4.60
2022-08-02T23:40:39.471Z,4.07
2022-08-02T23:43:14.253Z,6.10
2022-08-02T23:45:45.911Z,4.82
2022-08-02T23:48:12.986Z,6.15
2022-08-02T23:50:39.796Z,4.65
2022-08-02T23:53:06.451Z,4.85
2022-08-02T23:55:33.234Z,4.95
2022-08-02T23:57:59.956Z,4.05
